Terminal Aerodrome Forecast
Issued by NWS Cleveland, OH

Home | Current Version | Previous Version | Text Only | Print | Product List | Glossary On
Versions: 1 2 3 4 5 6 7 8 9 10 11 12 13 14 15 16 17 18 19 20 21
000
FTUS41 KCLE 211400 AAB
TAFYNG
TAF AMD
KYNG 211443Z 2115/2212 23012G20KT P6SM SCT015 OVC035
      TEMPO 2115/2117 3SM -TSRA BKN009 OVC025CB
     FM211700 25012G22KT P6SM BKN035
     FM212100 29015G22KT P6SM VCTS BKN035CB
      TEMPO 2121/2124 5SM -SHRA OVC035
     FM220200 33010KT P6SM BKN030=

USA.gov is the U.S. government's official web portal to all federal, state and local government web resources and services.